Time;durP1;ratioP1;P1;durP2;ratioP2;P2;SDS_P1;SDS_P2;PMS_P1;PMS_P2;Temp;Humidity;BMP_temperature;BMP_pressure;BME280_temperature;BME280_humidity;BME280_pressure;Samples;Min_cycle;Max_cycle;Signal;HPM_P1;HPM_P2
2023/09/02 00:02:11;;;;;;;1.80;1.70;;;;;;;;;;5028049;28;20442;-67
2023/09/02 00:04:41;;;;;;;2.90;1.83;;;;;;;;;;5021483;28;20436;-67
2023/09/02 00:07:08;;;;;;;2.50;1.97;;;;;;;;;;5023981;28;20496;-67
2023/09/02 00:09:35;;;;;;;3.20;2.10;;;;;;;;;;5027559;28;20435;-67
2023/09/02 00:12:02;;;;;;;3.05;2.10;;;;;;;;;;5028312;28;20496;-67
2023/09/02 00:14:32;;;;;;;2.88;1.70;;;;;;;;;;5028660;28;20441;-67
2023/09/02 00:16:59;;;;;;;1.75;1.63;;;;;;;;;;5028467;28;20444;-67
2023/09/02 00:19:26;;;;;;;1.67;1.58;;;;;;;;;;5027191;28;20439;-68
2023/09/02 00:21:53;;;;;;;3.55;1.90;;;;;;;;;;5025606;28;20474;-67
2023/09/02 00:24:20;;;;;;;3.20;1.85;;;;;;;;;;5032615;28;20429;-67
2023/09/02 00:26:48;;;;;;;2.10;1.55;;;;;;;;;;5029276;28;20513;-68
2023/09/02 00:29:15;;;;;;;2.33;2.00;;;;;;;;;;5048048;28;20430;-67
2023/09/02 00:31:45;;;;;;;2.42;2.08;;;;;;;;;;5029886;28;20435;-67
2023/09/02 00:34:12;;;;;;;2.22;2.03;;;;;;;;;;5034932;28;20429;-68
2023/09/02 00:36:39;;;;;;;3.33;2.20;;;;;;;;;;5027739;28;20431;-67
2023/09/02 00:39:06;;;;;;;4.00;2.47;;;;;;;;;;5025804;28;20509;-67
2023/09/02 00:41:38;;;;;;;4.57;2.30;;;;;;;;;;5027887;28;20517;-67
2023/09/02 00:44:06;;;;;;;2.30;2.13;;;;;;;;;;5028007;28;20698;-68
2023/09/02 00:46:33;;;;;;;2.60;2.17;;;;;;;;;;5037508;28;20431;-67
2023/09/02 00:49:03;;;;;;;2.10;1.80;;;;;;;;;;5034249;28;20470;-67
2023/09/02 00:51:33;;;;;;;3.72;2.00;;;;;;;;;;5033544;28;20513;-67
2023/09/02 00:54:03;;;;;;;2.60;1.80;;;;;;;;;;5030758;28;20431;-67
2023/09/02 00:56:39;;;;;;;2.63;2.03;;;;;;;;;;5021410;28;20488;-67
2023/09/02 00:59:07;;;;;;;2.13;2.00;;;;;;;;;;5029577;28;20435;-67
2023/09/02 01:01:35;;;;;;;3.70;1.90;;;;;;;;;;5027627;28;21030;-67
2023/09/02 01:04:06;;;;;;;3.55;2.05;;;;;;;;;;5022125;28;20434;-67
2023/09/02 01:06:38;;;;;;;2.53;1.95;;;;;;;;;;5026240;28;20437;-67
2023/09/02 01:09:11;;;;;;;3.22;2.10;;;;;;;;;;5032308;28;20439;-67
2023/09/02 01:11:38;;;;;;;2.00;1.80;;;;;;;;;;5052212;28;20532;-68
2023/09/02 01:14:06;;;;;;;1.80;1.65;;;;;;;;;;5024265;28;20489;-67
2023/09/02 01:16:33;;;;;;;1.75;1.65;;;;;;;;;;5030828;28;20430;-67
2023/09/02 01:19:00;;;;;;;2.92;1.90;;;;;;;;;;5029287;28;20438;-67
2023/09/02 01:21:46;;;;;;;3.42;2.40;;;;;;;;;;5026808;28;20439;-68
2023/09/02 01:24:29;;;;;;;1.73;1.63;;;;;;;;;;5026917;28;20440;-67
2023/09/02 01:27:08;;;;;;;2.00;1.90;;;;;;;;;;5024817;28;20502;-67
2023/09/02 01:29:38;;;;;;;3.42;2.20;;;;;;;;;;5025836;28;20434;-67
2023/09/02 01:32:06;;;;;;;4.87;2.10;;;;;;;;;;5025904;28;20426;-67
2023/09/02 01:34:34;;;;;;;5.27;2.40;;;;;;;;;;5042796;28;20438;-67
2023/09/02 01:37:02;;;;;;;3.80;2.60;;;;;;;;;;5028533;28;20540;-67
2023/09/02 01:39:30;;;;;;;4.15;2.58;;;;;;;;;;5028055;28;20435;-67
2023/09/02 01:41:59;;;;;;;2.50;2.28;;;;;;;;;;5027653;28;20777;-67
2023/09/02 01:44:27;;;;;;;3.20;2.47;;;;;;;;;;5025823;28;20438;-67
2023/09/02 01:46:55;;;;;;;2.97;2.67;;;;;;;;;;5026969;28;20497;-67
2023/09/02 01:49:25;;;;;;;3.33;2.78;;;;;;;;;;5041006;28;20447;-67
2023/09/02 01:51:52;;;;;;;3.17;2.88;;;;;;;;;;5025155;28;20527;-67
2023/09/02 01:54:20;;;;;;;3.10;2.70;;;;;;;;;;5029743;28;21101;-67
2023/09/02 01:56:47;;;;;;;3.20;2.57;;;;;;;;;;5023979;28;20471;-67
2023/09/02 01:59:14;;;;;;;3.43;2.43;;;;;;;;;;5042631;28;20463;-68
2023/09/02 02:01:41;;;;;;;3.43;2.33;;;;;;;;;;5028314;28;20545;-67
2023/09/02 02:04:16;;;;;;;3.20;2.40;;;;;;;;;;5024785;28;20427;-68
2023/09/02 02:06:44;;;;;;;3.33;2.30;;;;;;;;;;5028258;28;20431;-67
2023/09/02 02:09:13;;;;;;;2.90;2.70;;;;;;;;;;5024557;28;21214;-67
2023/09/02 02:11:40;;;;;;;6.18;2.97;;;;;;;;;;5027143;28;20506;-67
2023/09/02 02:14:10;;;;;;;2.67;2.42;;;;;;;;;;5031355;28;20439;-67
2023/09/02 02:16:40;;;;;;;3.00;2.60;;;;;;;;;;5025260;28;20542;-68
2023/09/02 02:19:07;;;;;;;3.35;2.85;;;;;;;;;;5024404;28;20439;-67
2023/09/02 02:21:40;;;;;;;3.47;2.22;;;;;;;;;;5021040;28;20546;-68
2023/09/02 02:24:07;;;;;;;2.60;2.40;;;;;;;;;;5025259;28;20435;-68
2023/09/02 02:26:35;;;;;;;4.68;2.80;;;;;;;;;;5027192;28;20442;-68
2023/09/02 02:29:04;;;;;;;4.25;3.17;;;;;;;;;;5025451;28;20438;-68
2023/09/02 02:31:33;;;;;;;4.32;2.75;;;;;;;;;;5028110;28;20434;-67
2023/09/02 02:34:00;;;;;;;6.50;2.38;;;;;;;;;;5025787;28;20431;-67
2023/09/02 02:36:27;;;;;;;2.67;2.22;;;;;;;;;;5024377;28;20513;-67
2023/09/02 02:38:55;;;;;;;2.78;2.25;;;;;;;;;;5026228;28;20465;-67
2023/09/02 02:41:22;;;;;;;2.40;2.10;;;;;;;;;;5024505;28;20444;-67
2023/09/02 02:43:49;;;;;;;2.20;1.98;;;;;;;;;;5028789;28;20510;-67
2023/09/02 02:46:16;;;;;;;2.47;2.03;;;;;;;;;;5029755;28;20500;-67
2023/09/02 02:48:43;;;;;;;3.63;2.15;;;;;;;;;;5025845;28;20493;-68
2023/09/02 02:51:10;;;;;;;5.10;2.40;;;;;;;;;;5024620;28;20462;-67
2023/09/02 02:53:41;;;;;;;2.88;2.20;;;;;;;;;;5027538;28;20433;-68
2023/09/02 02:56:08;;;;;;;2.30;2.20;;;;;;;;;;5024845;28;21321;-68
2023/09/02 02:58:35;;;;;;;2.63;2.20;;;;;;;;;;5027168;28;20422;-67
2023/09/02 03:01:06;;;;;;;4.05;2.08;;;;;;;;;;5025624;28;20437;-67
2023/09/02 03:03:35;;;;;;;2.65;2.10;;;;;;;;;;5022223;28;20509;-66
2023/09/02 03:06:03;;;;;;;4.43;2.58;;;;;;;;;;5023824;28;20430;-66
2023/09/02 03:08:31;;;;;;;4.07;3.00;;;;;;;;;;5050242;28;20460;-66
2023/09/02 03:11:02;;;;;;;2.80;2.55;;;;;;;;;;5027076;28;20427;-66
2023/09/02 03:13:30;;;;;;;2.97;2.35;;;;;;;;;;5026943;28;20463;-65
2023/09/02 03:15:57;;;;;;;3.55;2.25;;;;;;;;;;5026315;28;20434;-66
2023/09/02 03:18:28;;;;;;;3.10;2.50;;;;;;;;;;5026336;28;20426;-66
2023/09/02 03:20:55;;;;;;;2.50;2.30;;;;;;;;;;5029879;28;20488;-66
2023/09/02 03:23:23;;;;;;;3.63;2.53;;;;;;;;;;5024963;28;20500;-66
2023/09/02 03:25:50;;;;;;;3.80;2.70;;;;;;;;;;5040709;28;20461;-66
2023/09/02 03:28:20;;;;;;;3.28;2.78;;;;;;;;;;5022108;28;21099;-65
2023/09/02 03:30:50;;;;;;;4.40;2.85;;;;;;;;;;5039210;28;20951;-65
2023/09/02 03:33:17;;;;;;;4.05;2.58;;;;;;;;;;5028927;28;20479;-66
2023/09/02 03:35:45;;;;;;;3.53;2.80;;;;;;;;;;5028259;28;20433;-65
2023/09/02 03:38:14;;;;;;;3.17;2.95;;;;;;;;;;5030904;28;20501;-65
2023/09/02 03:40:42;;;;;;;4.43;3.00;;;;;;;;;;5030087;28;20467;-65
2023/09/02 03:43:09;;;;;;;2.72;2.53;;;;;;;;;;5020795;28;21140;-66
2023/09/02 03:45:37;;;;;;;3.38;2.72;;;;;;;;;;5020478;28;20438;-65
2023/09/02 03:48:04;;;;;;;2.75;2.55;;;;;;;;;;5026455;28;20948;-65
2023/09/02 03:50:31;;;;;;;3.97;2.45;;;;;;;;;;5032537;28;20492;-65
2023/09/02 03:52:59;;;;;;;2.45;2.22;;;;;;;;;;5032896;28;20431;-66
2023/09/02 03:55:26;;;;;;;3.70;2.33;;;;;;;;;;5029028;28;20476;-65
2023/09/02 03:57:53;;;;;;;3.63;2.53;;;;;;;;;;5029417;28;20515;-66
2023/09/02 04:00:20;;;;;;;4.35;2.72;;;;;;;;;;5044353;28;20837;-66
2023/09/02 04:02:47;;;;;;;6.00;2.70;;;;;;;;;;5029311;28;20545;-66
2023/09/02 04:05:15;;;;;;;3.28;2.70;;;;;;;;;;5026844;28;20444;-66
2023/09/02 04:07:42;;;;;;;3.63;2.72;;;;;;;;;;5028533;28;20440;-65
2023/09/02 04:10:09;;;;;;;3.10;2.90;;;;;;;;;;5035049;28;20439;-66
2023/09/02 04:12:36;;;;;;;2.85;2.60;;;;;;;;;;5028758;28;20908;-66
2023/09/02 04:15:03;;;;;;;2.70;2.50;;;;;;;;;;5030051;28;20422;-66
2023/09/02 04:17:31;;;;;;;3.00;2.70;;;;;;;;;;5028985;28;22772;-66
2023/09/02 04:20:00;;;;;;;2.65;2.45;;;;;;;;;;5035172;28;21134;-66
2023/09/02 04:22:28;;;;;;;2.42;2.28;;;;;;;;;;5027522;28;20440;-66
2023/09/02 04:24:56;;;;;;;2.60;2.40;;;;;;;;;;5026364;28;20438;-66
2023/09/02 04:27:27;;;;;;;1.90;1.80;;;;;;;;;;5043929;28;20529;-66
2023/09/02 04:29:54;;;;;;;3.40;1.80;;;;;;;;;;5023127;28;20842;-66
2023/09/02 04:32:21;;;;;;;1.70;1.60;;;;;;;;;;5033816;28;20423;-66
2023/09/02 04:34:48;;;;;;;1.60;1.50;;;;;;;;;;5035901;28;20470;-66
2023/09/02 04:37:15;;;;;;;1.70;1.60;;;;;;;;;;5025791;28;20513;-66
2023/09/02 04:39:42;;;;;;;1.73;1.63;;;;;;;;;;5027026;28;20442;-66
2023/09/02 04:42:10;;;;;;;2.60;2.45;;;;;;;;;;5039179;28;20460;-66
2023/09/02 04:44:37;;;;;;;4.05;1.60;;;;;;;;;;5025648;28;20435;-66
2023/09/02 04:47:06;;;;;;;3.60;1.52;;;;;;;;;;5034210;28;20546;-66
2023/09/02 04:49:33;;;;;;;672.00;386.50;;;;;;;;;;5032237;28;20429;-66
2023/09/02 04:52:03;;;;;;;623.85;364.75;;;;;;;;;;5027289;28;20979;-66
2023/09/02 04:54:32;;;;;;;628.60;327.53;;;;;;;;;;5035453;28;20429;-66
2023/09/02 04:56:59;;;;;;;628.37;286.17;;;;;;;;;;5044949;28;20515;-66
2023/09/02 04:59:26;;;;;;;620.95;278.58;;;;;;;;;;5031927;28;20462;-66
2023/09/02 05:01:53;;;;;;;294.23;225.70;;;;;;;;;;5033567;28;20435;-66
2023/09/02 05:04:20;;;;;;;604.40;271.67;;;;;;;;;;5027200;28;20466;-66
2023/09/02 05:06:47;;;;;;;575.63;270.88;;;;;;;;;;5026291;28;20901;-66
2023/09/02 05:09:15;;;;;;;581.87;283.00;;;;;;;;;;5024524;28;20431;-66
2023/09/02 05:11:42;;;;;;;577.08;284.02;;;;;;;;;;5029247;28;20427;-66
2023/09/02 05:14:09;;;;;;;568.43;261.00;;;;;;;;;;5030942;28;20430;-66
2023/09/02 05:16:36;;;;;;;579.60;282.02;;;;;;;;;;5040764;28;22877;-66
2023/09/02 05:19:03;;;;;;;548.92;193.85;;;;;;;;;;5024233;28;20509;-66
2023/09/02 05:21:33;;;;;;;570.38;261.20;;;;;;;;;;5024775;28;20470;-66
2023/09/02 05:24:01;;;;;;;551.45;267.42;;;;;;;;;;5027368;28;20948;-66
2023/09/02 05:26:28;;;;;;;559.13;267.08;;;;;;;;;;5034014;28;20426;-66
2023/09/02 05:28:55;;;;;;;563.85;277.38;;;;;;;;;;5028542;28;20450;-66
2023/09/02 05:31:22;;;;;;;575.78;283.67;;;;;;;;;;5026205;28;20437;-66
2023/09/02 05:33:49;;;;;;;575.80;285.05;;;;;;;;;;5028424;28;20603;-65
2023/09/02 05:36:16;;;;;;;579.00;287.50;;;;;;;;;;5025771;28;20426;-65
2023/09/02 05:38:46;;;;;;;582.50;283.83;;;;;;;;;;5023253;28;20439;-65
2023/09/02 05:41:14;;;;;;;570.33;278.83;;;;;;;;;;5023771;28;20526;-65
2023/09/02 05:43:41;;;;;;;562.72;265.17;;;;;;;;;;5023535;28;21114;-65
2023/09/02 05:46:13;;;;;;;561.60;276.30;;;;;;;;;;5029700;28;20431;-65
2023/09/02 05:48:41;;;;;;;569.13;281.80;;;;;;;;;;5027885;28;20997;-65
2023/09/02 05:51:08;;;;;;;562.80;287.33;;;;;;;;;;5025227;28;20445;-67
2023/09/02 05:53:35;;;;;;;558.25;281.38;;;;;;;;;;5024982;28;20424;-65
2023/09/02 05:56:04;;;;;;;562.60;282.10;;;;;;;;;;5033154;28;20948;-66
2023/09/02 05:58:31;;;;;;;593.97;212.10;;;;;;;;;;5040479;28;21908;-65
2023/09/02 06:01:03;;;;;;;547.08;206.95;;;;;;;;;;5027345;28;20522;-66
2023/09/02 06:03:30;;;;;;;530.30;206.60;;;;;;;;;;5024311;28;20443;-66
2023/09/02 06:05:58;;;;;;;558.97;269.55;;;;;;;;;;5034663;28;20431;-66
2023/09/02 06:08:25;;;;;;;580.17;295.33;;;;;;;;;;5037847;28;21039;-66
2023/09/02 06:10:58;;;;;;;611.85;349.02;;;;;;;;;;5031491;28;20458;-65
2023/09/02 06:13:29;;;;;;;645.33;362.27;;;;;;;;;;5022652;28;20646;-66
2023/09/02 06:16:00;;;;;;;718.22;554.25;;;;;;;;;;5024694;28;20431;-65
2023/09/02 06:18:30;;;;;;;3.53;3.22;;;;;;;;;;5027503;28;20431;-65
2023/09/02 06:20:57;;;;;;;6.57;6.07;;;;;;;;;;5031385;28;20433;-66
2023/09/02 06:23:25;;;;;;;50.42;46.88;;;;;;;;;;5027422;28;20962;-65
2023/09/02 06:25:59;;;;;;;2.63;2.53;;;;;;;;;;5026287;28;20431;-66
2023/09/02 06:28:27;;;;;;;105.80;97.32;;;;;;;;;;5020724;28;20438;-66
2023/09/02 06:30:54;;;;;;;18.20;16.80;;;;;;;;;;5021285;28;20993;-66
2023/09/02 06:33:24;;;;;;;3.33;3.03;;;;;;;;;;5019454;28;20423;-66
2023/09/02 06:35:52;;;;;;;263.73;239.80;;;;;;;;;;5019531;28;20439;-65
2023/09/02 06:38:19;;;;;;;18.90;17.70;;;;;;;;;;5027949;28;20528;-65
2023/09/02 06:40:50;;;;;;;264.93;244.77;;;;;;;;;;5024279;28;20446;-65
2023/09/02 06:43:20;;;;;;;802.53;736.72;;;;;;;;;;5030027;28;20443;-66
2023/09/02 06:45:48;;;;;;;292.65;262.98;;;;;;;;;;5028593;28;20524;-66
2023/09/02 06:48:15;;;;;;;41.85;38.47;;;;;;;;;;5041943;28;20449;-65
2023/09/02 06:50:47;;;;;;;4.22;3.92;;;;;;;;;;5032165;28;21110;-65
2023/09/02 06:53:14;;;;;;;4.63;4.22;;;;;;;;;;5027096;28;20506;-65
2023/09/02 06:55:45;;;;;;;11.95;11.07;;;;;;;;;;5032049;28;20429;-65
2023/09/02 06:58:12;;;;;;;726.40;667.70;;;;;;;;;;5019392;28;20439;-65
2023/09/02 07:00:39;;;;;;;529.17;483.80;;;;;;;;;;5039756;28;20438;-66
2023/09/02 07:03:07;;;;;;;900.38;803.83;;;;;;;;;;5028613;28;20441;-65
2023/09/02 07:05:34;;;;;;;1006.10;789.80;;;;;;;;;;5021633;28;20438;-66
2023/09/02 07:08:04;;;;;;;993.47;813.58;;;;;;;;;;5029091;28;20933;-65
2023/09/02 07:10:31;;;;;;;1007.72;795.35;;;;;;;;;;5022495;28;20453;-65
2023/09/02 07:13:02;;;;;;;998.03;823.63;;;;;;;;;;5026521;28;21052;-66
2023/09/02 07:15:29;;;;;;;994.87;831.03;;;;;;;;;;5033712;28;20437;-65
2023/09/02 07:17:56;;;;;;;993.47;763.67;;;;;;;;;;5033233;28;20436;-66
2023/09/02 07:20:23;;;;;;;985.30;747.92;;;;;;;;;;5023999;28;20438;-65
2023/09/02 07:22:51;;;;;;;700.85;624.53;;;;;;;;;;5021894;28;20557;-65
2023/09/02 07:25:18;;;;;;;993.80;762.05;;;;;;;;;;5030119;28;20435;-66
2023/09/02 07:27:45;;;;;;;937.08;679.72;;;;;;;;;;5022636;28;20489;-66
2023/09/02 07:30:15;;;;;;;928.00;657.43;;;;;;;;;;5021259;28;20540;-66
2023/09/02 07:32:42;;;;;;;971.08;705.75;;;;;;;;;;5027783;28;20475;-66
2023/09/02 07:35:09;;;;;;;968.60;715.50;;;;;;;;;;5024811;28;20812;-66
2023/09/02 07:37:36;;;;;;;1010.23;785.60;;;;;;;;;;5029495;28;20509;-66
2023/09/02 07:40:04;;;;;;;1034.80;828.95;;;;;;;;;;5019421;28;20442;-66
2023/09/02 07:42:31;;;;;;;833.70;463.13;;;;;;;;;;5022184;28;20523;-66
2023/09/02 07:44:58;;;;;;;898.13;614.90;;;;;;;;;;5026568;28;20946;-66
2023/09/02 07:47:25;;;;;;;902.50;635.85;;;;;;;;;;5034371;28;20445;-66
2023/09/02 07:49:56;;;;;;;953.70;699.27;;;;;;;;;;5030896;28;21093;-66
2023/09/02 07:52:24;;;;;;;890.22;810.88;;;;;;;;;;5031185;28;20895;-66
2023/09/02 07:54:51;;;;;;;979.88;780.78;;;;;;;;;;5021013;28;20438;-65
2023/09/02 07:57:18;;;;;;;980.38;798.60;;;;;;;;;;5025007;28;20438;-66
2023/09/02 07:59:45;;;;;;;915.38;665.80;;;;;;;;;;5024803;28;20469;-66
2023/09/02 08:02:13;;;;;;;933.13;690.90;;;;;;;;;;5026463;28;20427;-66
2023/09/02 08:04:40;;;;;;;826.22;756.03;;;;;;;;;;5025441;28;20501;-66
2023/09/02 08:07:07;;;;;;;952.80;823.22;;;;;;;;;;5026357;28;20435;-66
2023/09/02 08:09:34;;;;;;;619.53;568.67;;;;;;;;;;5025906;28;20454;-66
2023/09/02 08:12:01;;;;;;;953.23;853.53;;;;;;;;;;5025640;28;20425;-66
2023/09/02 08:14:28;;;;;;;1025.22;814.70;;;;;;;;;;5026880;28;20475;-66
2023/09/02 08:16:58;;;;;;;954.92;850.80;;;;;;;;;;5019167;28;20435;-66
2023/09/02 08:19:25;;;;;;;983.60;768.47;;;;;;;;;;5025893;28;20434;-65
2023/09/02 08:21:55;;;;;;;972.30;747.15;;;;;;;;;;5024788;28;20439;-66
2023/09/02 08:24:22;;;;;;;915.42;667.58;;;;;;;;;;5029250;28;20431;-65
2023/09/02 08:26:49;;;;;;;916.28;662.20;;;;;;;;;;5023384;28;22645;-66
2023/09/02 08:29:16;;;;;;;903.65;648.47;;;;;;;;;;5030597;28;20475;-66
2023/09/02 08:31:48;;;;;;;918.95;683.13;;;;;;;;;;5031309;28;20463;-66
2023/09/02 08:34:15;;;;;;;937.13;720.70;;;;;;;;;;5026334;28;20443;-66
2023/09/02 08:36:43;;;;;;;941.78;732.67;;;;;;;;;;5030623;28;20458;-66
2023/09/02 08:39:10;;;;;;;917.58;695.88;;;;;;;;;;5030744;28;20446;-66
2023/09/02 08:41:39;;;;;;;904.20;684.95;;;;;;;;;;5028972;28;20441;-66
2023/09/02 08:44:06;;;;;;;862.20;576.85;;;;;;;;;;5025486;28;20505;-66
2023/09/02 08:46:38;;;;;;;912.65;696.28;;;;;;;;;;5024994;28;20464;-66
2023/09/02 08:49:08;;;;;;;893.37;658.97;;;;;;;;;;5032235;28;20436;-66
2023/09/02 08:51:36;;;;;;;906.80;692.95;;;;;;;;;;5045711;28;20793;-66
2023/09/02 08:54:03;;;;;;;915.45;710.10;;;;;;;;;;5029982;28;20425;-67
2023/09/02 08:56:31;;;;;;;924.70;730.55;;;;;;;;;;5031186;28;20463;-66
2023/09/02 08:58:58;;;;;;;936.22;755.15;;;;;;;;;;5020227;28;20432;-67
2023/09/02 09:01:25;;;;;;;1094.65;973.60;;;;;;;;;;5024445;28;20510;-66
2023/09/02 09:03:57;;;;;;;1162.05;999.90;;;;;;;;;;5033014;28;20429;-66
2023/09/02 09:06:25;;;;;;;1157.13;999.90;;;;;;;;;;5046235;28;20444;-66
2023/09/02 09:08:53;;;;;;;1184.80;999.90;;;;;;;;;;5032017;28;20437;-66
2023/09/02 09:11:22;;;;;;;353.38;324.23;;;;;;;;;;5045435;28;20502;-66
2023/09/02 09:13:50;;;;;;;829.42;754.60;;;;;;;;;;5031356;28;20923;-66
2023/09/02 09:16:20;;;;;;;257.80;238.17;;;;;;;;;;5031883;28;20513;-66
2023/09/02 09:18:49;;;;;;;996.17;895.40;;;;;;;;;;5029055;28;20426;-67
2023/09/02 09:21:17;;;;;;;1066.03;949.10;;;;;;;;;;5034388;28;20440;-67
2023/09/02 09:23:45;;;;;;;997.13;870.63;;;;;;;;;;5042368;28;20555;-66
2023/09/02 09:26:14;;;;;;;982.22;850.13;;;;;;;;;;5026656;28;20495;-67
2023/09/02 09:28:50;;;;;;;967.97;830.85;;;;;;;;;;5026496;28;20470;-66
2023/09/02 09:31:18;;;;;;;1010.65;884.97;;;;;;;;;;5026317;28;20439;-66
2023/09/02 09:33:53;;;;;;;1093.80;974.70;;;;;;;;;;5021496;28;20439;-67
2023/09/02 09:36:24;;;;;;;245.23;222.80;;;;;;;;;;5023818;28;20436;-67
2023/09/02 09:38:54;;;;;;;167.60;151.57;;;;;;;;;;5028413;28;20459;-67
2023/09/02 09:41:22;;;;;;;1173.85;999.90;;;;;;;;;;5027922;28;20426;-67
2023/09/02 09:44:05;;;;;;;1191.65;999.90;;;;;;;;;;5033235;28;20935;-67
2023/09/02 09:46:49;;;;;;;801.42;730.63;;;;;;;;;;5030953;28;20507;-67
2023/09/02 09:49:29;;;;;;;522.88;481.02;;;;;;;;;;5035586;28;20552;-67
2023/09/02 09:51:59;;;;;;;1.70;1.00;;;;;;;;;;5032579;28;20510;-66
2023/09/02 09:54:39;;;;;;;1.98;1.85;;;;;;;;;;5029899;28;20532;-67
2023/09/02 09:57:11;;;;;;;30.42;27.67;;;;;;;;;;5027378;28;20512;-67
2023/09/02 09:59:50;;;;;;;320.17;294.77;;;;;;;;;;5027454;28;20434;-67
2023/09/02 10:02:19;;;;;;;171.43;157.18;;;;;;;;;;5027747;28;20434;-67
2023/09/02 10:04:53;;;;;;;1.50;0.60;;;;;;;;;;5032332;28;20508;-66
2023/09/02 10:07:31;;;;;;;565.17;517.58;;;;;;;;;;5034478;28;20497;-67
2023/09/02 10:09:59;;;;;;;660.57;603.43;;;;;;;;;;5044811;28;20431;-67
2023/09/02 10:12:33;;;;;;;0.63;0.63;;;;;;;;;;5040659;28;20423;-67
2023/09/02 10:15:05;;;;;;;113.37;103.43;;;;;;;;;;5021359;28;20518;-67
2023/09/02 10:17:32;;;;;;;0.50;0.50;;;;;;;;;;5052524;28;20435;-66
2023/09/02 10:20:00;;;;;;;1.40;0.60;;;;;;;;;;5039522;28;20436;-67
2023/09/02 10:22:31;;;;;;;1.60;1.60;;;;;;;;;;5044979;28;20462;-67
2023/09/02 10:24:59;;;;;;;25.80;24.02;;;;;;;;;;5032077;28;20970;-67
2023/09/02 10:27:27;;;;;;;0.80;0.80;;;;;;;;;;5036178;28;20429;-67
2023/09/02 10:29:58;;;;;;;0.70;0.60;;;;;;;;;;5029718;28;20435;-67
2023/09/02 10:32:29;;;;;;;26.38;23.63;;;;;;;;;;5029439;28;20434;-67
2023/09/02 10:35:08;;;;;;;0.73;0.73;;;;;;;;;;5036730;28;20774;-67
2023/09/02 10:37:45;;;;;;;0.50;0.50;;;;;;;;;;5037444;28;20453;-67
2023/09/02 10:40:15;;;;;;;0.60;0.60;;;;;;;;;;5026817;28;20481;-67
2023/09/02 10:42:42;;;;;;;0.70;0.68;;;;;;;;;;5043830;28;20487;-67
2023/09/02 10:45:10;;;;;;;41.35;37.75;;;;;;;;;;5036903;28;20434;-67
2023/09/02 10:47:39;;;;;;;0.60;0.55;;;;;;;;;;5045754;28;20433;-67
2023/09/02 10:50:10;;;;;;;17.20;15.73;;;;;;;;;;5038685;28;20457;-67
2023/09/02 10:52:37;;;;;;;46.55;42.17;;;;;;;;;;5040854;28;20434;-67
2023/09/02 10:55:06;;;;;;;2.00;0.60;;;;;;;;;;5031000;28;20429;-67
2023/09/02 10:57:45;;;;;;;5.70;5.10;;;;;;;;;;5023808;28;20526;-67
2023/09/02 11:00:28;;;;;;;1.27;0.60;;;;;;;;;;5041549;28;20831;-67
2023/09/02 11:02:56;;;;;;;0.40;0.40;;;;;;;;;;5039860;28;20509;-67
2023/09/02 11:05:24;;;;;;;0.63;0.63;;;;;;;;;;5049497;28;20905;-67
2023/09/02 11:07:53;;;;;;;0.70;0.70;;;;;;;;;;5043708;28;20852;-67
2023/09/02 11:10:20;;;;;;;0.63;0.63;;;;;;;;;;5034328;28;20437;-68
2023/09/02 11:12:59;;;;;;;0.45;0.45;;;;;;;;;;5036700;28;20503;-67
2023/09/02 11:15:27;;;;;;;0.80;0.70;;;;;;;;;;5034688;28;20482;-67
2023/09/02 11:17:54;;;;;;;0.70;0.70;;;;;;;;;;5039854;28;20434;-67
2023/09/02 11:20:28;;;;;;;1.10;0.55;;;;;;;;;;5019630;28;20441;-67
2023/09/02 11:22:55;;;;;;;0.60;0.60;;;;;;;;;;5032834;28;20459;-68
2023/09/02 11:25:26;;;;;;;0.98;0.98;;;;;;;;;;5031970;28;20901;-67
2023/09/02 11:27:56;;;;;;;0.85;0.70;;;;;;;;;;5036737;28;20435;-67
2023/09/02 11:30:24;;;;;;;0.60;0.60;;;;;;;;;;5015428;28;20466;-67
2023/09/02 11:32:51;;;;;;;0.65;0.65;;;;;;;;;;5018995;28;21553;-68
2023/09/02 11:35:44;;;;;;;1.10;0.70;;;;;;;;;;5024840;28;20940;-68
2023/09/02 11:38:19;;;;;;;1.10;0.60;;;;;;;;;;5026149;28;20488;-67
2023/09/02 11:40:46;;;;;;;0.60;0.60;;;;;;;;;;5034843;28;20434;-67
2023/09/02 11:43:19;;;;;;;0.95;0.70;;;;;;;;;;5031395;28;20432;-68
2023/09/02 11:45:52;;;;;;;2.65;0.70;;;;;;;;;;5029599;28;20860;-68
2023/09/02 11:48:24;;;;;;;1.08;0.70;;;;;;;;;;5040628;28;20499;-67
2023/09/02 11:50:52;;;;;;;0.80;0.73;;;;;;;;;;5044386;28;20453;-68
2023/09/02 11:53:19;;;;;;;0.70;0.70;;;;;;;;;;5036487;28;20431;-67
2023/09/02 11:55:50;;;;;;;0.95;0.70;;;;;;;;;;5045891;28;20807;-69
2023/09/02 11:58:19;;;;;;;0.70;0.70;;;;;;;;;;5031104;28;20431;-67
2023/09/02 12:00:46;;;;;;;0.82;0.70;;;;;;;;;;5031157;28;20433;-68
2023/09/02 12:03:27;;;;;;;0.60;0.60;;;;;;;;;;5034602;28;20517;-68
2023/09/02 12:05:59;;;;;;;0.80;0.80;;;;;;;;;;5038727;28;20917;-68
2023/09/02 12:08:27;;;;;;;0.90;0.70;;;;;;;;;;5038050;28;20454;-67
2023/09/02 12:11:04;;;;;;;1.60;0.90;;;;;;;;;;5049309;28;20961;-67
2023/09/02 12:13:31;;;;;;;0.70;0.70;;;;;;;;;;5043430;28;20441;-68
2023/09/02 12:15:58;;;;;;;0.60;0.60;;;;;;;;;;5031358;28;20430;-67
2023/09/02 12:18:29;;;;;;;0.63;0.63;;;;;;;;;;5037461;28;20535;-68
2023/09/02 12:20:57;;;;;;;0.57;0.57;;;;;;;;;;5050238;28;20428;-67
2023/09/02 12:23:27;;;;;;;0.60;0.60;;;;;;;;;;5030565;28;20484;-68
2023/09/02 12:26:03;;;;;;;0.50;0.50;;;;;;;;;;5032271;28;20435;-68
2023/09/02 12:28:31;;;;;;;0.70;0.70;;;;;;;;;;5042361;28;20425;-68
2023/09/02 12:30:58;;;;;;;0.70;0.70;;;;;;;;;;5048263;28;20424;-68
2023/09/02 12:33:26;;;;;;;0.70;0.70;;;;;;;;;;5031526;28;20465;-69
2023/09/02 12:35:53;;;;;;;0.95;0.70;;;;;;;;;;5034017;28;20774;-68
2023/09/02 12:38:21;;;;;;;0.70;0.70;;;;;;;;;;5039811;28;20487;-68
2023/09/02 12:40:57;;;;;;;0.83;0.83;;;;;;;;;;5042451;28;20429;-68
2023/09/02 12:43:28;;;;;;;3.85;3.53;;;;;;;;;;5051160;28;20441;-68
2023/09/02 12:45:56;;;;;;;1.50;0.70;;;;;;;;;;5041663;28;20422;-68
2023/09/02 12:48:24;;;;;;;0.80;0.80;;;;;;;;;;5045326;28;20897;-67
2023/09/02 12:50:54;;;;;;;0.60;0.60;;;;;;;;;;5043028;28;20442;-67
2023/09/02 12:53:26;;;;;;;1.00;0.80;;;;;;;;;;5043477;28;20457;-67
2023/09/02 12:55:55;;;;;;;0.70;0.70;;;;;;;;;;5030516;28;20437;-68
2023/09/02 12:58:25;;;;;;;1.92;1.00;;;;;;;;;;5045820;28;20424;-68
2023/09/02 13:00:52;;;;;;;0.60;0.60;;;;;;;;;;5038797;28;20768;-68
2023/09/02 13:03:22;;;;;;;0.77;0.77;;;;;;;;;;5050036;28;20875;-68
2023/09/02 13:05:50;;;;;;;0.60;0.60;;;;;;;;;;5032435;28;20463;-67
2023/09/02 13:08:17;;;;;;;0.68;0.68;;;;;;;;;;5034075;28;20472;-67
2023/09/02 13:10:44;;;;;;;0.70;0.70;;;;;;;;;;5029865;28;20503;-68
2023/09/02 13:13:11;;;;;;;1.00;0.80;;;;;;;;;;5032134;28;20489;-68
2023/09/02 13:15:38;;;;;;;0.70;0.70;;;;;;;;;;5032349;28;20512;-67
2023/09/02 13:18:06;;;;;;;1.33;0.80;;;;;;;;;;5032985;28;20517;-67
2023/09/02 13:20:35;;;;;;;0.77;0.57;;;;;;;;;;5042239;28;20452;-67
2023/09/02 13:23:06;;;;;;;0.73;0.70;;;;;;;;;;5027935;28;20842;-67
2023/09/02 13:25:33;;;;;;;0.77;0.77;;;;;;;;;;5027627;28;22349;-67
2023/09/02 13:28:00;;;;;;;0.70;0.70;;;;;;;;;;5032621;28;20477;-68
2023/09/02 13:30:27;;;;;;;1.10;0.63;;;;;;;;;;5028441;28;20518;-67
2023/09/02 13:32:55;;;;;;;0.73;0.73;;;;;;;;;;5016767;28;20940;-68
2023/09/02 13:35:23;;;;;;;0.60;0.60;;;;;;;;;;5027030;28;20435;-68
2023/09/02 13:37:51;;;;;;;0.70;0.70;;;;;;;;;;5025275;28;20511;-67
2023/09/02 13:40:18;;;;;;;0.60;0.60;;;;;;;;;;5027812;28;20431;-67
2023/09/02 13:42:46;;;;;;;0.80;0.80;;;;;;;;;;5032097;28;20429;-67
2023/09/02 13:45:34;;;;;;;0.60;0.60;;;;;;;;;;5037717;28;20462;-67
2023/09/02 13:48:01;;;;;;;0.70;0.60;;;;;;;;;;5038608;28;20435;-67
2023/09/02 13:50:29;;;;;;;0.70;0.70;;;;;;;;;;5039289;28;20440;-67
2023/09/02 13:52:59;;;;;;;0.63;0.60;;;;;;;;;;5026149;28;20430;-67
2023/09/02 13:55:27;;;;;;;0.98;0.75;;;;;;;;;;5031958;28;20465;-67
2023/09/02 13:57:54;;;;;;;0.70;0.70;;;;;;;;;;5045222;28;20797;-67
2023/09/02 14:00:26;;;;;;;1.30;0.70;;;;;;;;;;5020162;28;20529;-68
2023/09/02 14:02:57;;;;;;;0.60;0.60;;;;;;;;;;5024219;28;20437;-67
2023/09/02 14:05:24;;;;;;;0.95;0.63;;;;;;;;;;5030367;28;20500;-68
2023/09/02 14:08:00;;;;;;;0.60;0.60;;;;;;;;;;5034794;28;20443;-67
2023/09/02 14:10:32;;;;;;;0.70;0.70;;;;;;;;;;5031145;28;20435;-68
2023/09/02 14:13:04;;;;;;;0.73;0.73;;;;;;;;;;5026394;28;20430;-67
2023/09/02 14:15:31;;;;;;;1.08;0.77;;;;;;;;;;5025863;28;20525;-68
2023/09/02 14:17:58;;;;;;;0.70;0.70;;;;;;;;;;5027433;28;20841;-68
2023/09/02 14:20:25;;;;;;;0.55;0.55;;;;;;;;;;5027213;28;20449;-67
2023/09/02 14:22:52;;;;;;;0.70;0.70;;;;;;;;;;5029344;28;20514;-67
2023/09/02 14:25:20;;;;;;;0.75;0.75;;;;;;;;;;5026815;28;20882;-67
2023/09/02 14:27:47;;;;;;;0.60;0.60;;;;;;;;;;5026311;28;20431;-67
2023/09/02 14:30:14;;;;;;;1.15;0.65;;;;;;;;;;5024713;28;20439;-67
2023/09/02 14:32:41;;;;;;;0.60;0.60;;;;;;;;;;5026384;28;20434;-68
2023/09/02 14:35:11;;;;;;;0.70;0.70;;;;;;;;;;5024477;28;20835;-67